sensor_id;sensor_type;location;lat;lon;timestamp;P1;durP1;ratioP1;P2;durP2;ratioP2
49870;SDS011;35767;52.322;9.122;2023-07-31T00:01:13;1.55;;;1.45;;
49870;SDS011;35767;52.322;9.122;2023-07-31T00:04:15;1.70;;;1.20;;
49870;SDS011;35767;52.322;9.122;2023-07-31T00:07:17;1.70;;;1.48;;
49870;SDS011;35767;52.322;9.122;2023-07-31T00:10:19;1.63;;;1.13;;
49870;SDS011;35767;52.322;9.122;2023-07-31T00:13:20;2.20;;;1.33;;
49870;SDS011;35767;52.322;9.122;2023-07-31T00:16:24;2.45;;;0.95;;
49870;SDS011;35767;52.322;9.122;2023-07-31T00:19:25;1.88;;;1.23;;
49870;SDS011;35767;52.322;9.122;2023-07-31T00:22:32;1.30;;;1.20;;
49870;SDS011;35767;52.322;9.122;2023-07-31T00:25:33;2.35;;;1.20;;
49870;SDS011;35767;52.322;9.122;2023-07-31T00:28:35;2.45;;;1.67;;
49870;SDS011;35767;52.322;9.122;2023-07-31T00:31:39;1.30;;;1.08;;
49870;SDS011;35767;52.322;9.122;2023-07-31T00:34:45;1.42;;;1.33;;
49870;SDS011;35767;52.322;9.122;2023-07-31T00:37:46;2.70;;;1.10;;
49870;SDS011;35767;52.322;9.122;2023-07-31T00:40:48;1.55;;;1.45;;
49870;SDS011;35767;52.322;9.122;2023-07-31T00:43:50;1.40;;;1.10;;
49870;SDS011;35767;52.322;9.122;2023-07-31T00:46:53;1.70;;;1.05;;
49870;SDS011;35767;52.322;9.122;2023-07-31T00:50:02;2.28;;;1.40;;
49870;SDS011;35767;52.322;9.122;2023-07-31T00:53:06;0.93;;;0.90;;
49870;SDS011;35767;52.322;9.122;2023-07-31T00:56:08;1.52;;;1.42;;
49870;SDS011;35767;52.322;9.122;2023-07-31T00:59:09;3.47;;;1.00;;
49870;SDS011;35767;52.322;9.122;2023-07-31T01:02:13;1.08;;;0.90;;
49870;SDS011;35767;52.322;9.122;2023-07-31T01:05:18;1.05;;;1.00;;
49870;SDS011;35767;52.322;9.122;2023-07-31T01:08:26;1.25;;;0.88;;
49870;SDS011;35767;52.322;9.122;2023-07-31T01:11:32;0.75;;;0.70;;
49870;SDS011;35767;52.322;9.122;2023-07-31T01:14:35;1.10;;;1.02;;
49870;SDS011;35767;52.322;9.122;2023-07-31T01:17:38;1.70;;;0.90;;
49870;SDS011;35767;52.322;9.122;2023-07-31T01:20:41;0.80;;;0.80;;
49870;SDS011;35767;52.322;9.122;2023-07-31T01:27:23;0.63;;;0.63;;
49870;SDS011;35767;52.322;9.122;2023-07-31T01:30:27;0.68;;;0.50;;
49870;SDS011;35767;52.322;9.122;2023-07-31T01:33:31;1.30;;;1.00;;
49870;SDS011;35767;52.322;9.122;2023-07-31T01:36:33;1.23;;;1.00;;
49870;SDS011;35767;52.322;9.122;2023-07-31T01:39:35;0.57;;;0.57;;
49870;SDS011;35767;52.322;9.122;2023-07-31T01:42:38;0.70;;;0.57;;
49870;SDS011;35767;52.322;9.122;2023-07-31T01:45:40;1.27;;;0.98;;
49870;SDS011;35767;52.322;9.122;2023-07-31T01:48:42;0.60;;;0.60;;
49870;SDS011;35767;52.322;9.122;2023-07-31T01:51:43;0.80;;;0.80;;
49870;SDS011;35767;52.322;9.122;2023-07-31T01:54:45;2.15;;;0.75;;
49870;SDS011;35767;52.322;9.122;2023-07-31T01:57:48;0.80;;;0.80;;
49870;SDS011;35767;52.322;9.122;2023-07-31T02:00:50;1.00;;;0.80;;
49870;SDS011;35767;52.322;9.122;2023-07-31T02:03:51;0.80;;;0.80;;
49870;SDS011;35767;52.322;9.122;2023-07-31T02:06:55;1.00;;;1.00;;
49870;SDS011;35767;52.322;9.122;2023-07-31T02:09:57;1.02;;;0.93;;
49870;SDS011;35767;52.322;9.122;2023-07-31T02:13:00;0.95;;;0.80;;
49870;SDS011;35767;52.322;9.122;2023-07-31T02:16:02;0.65;;;0.65;;
49870;SDS011;35767;52.322;9.122;2023-07-31T02:19:04;0.88;;;0.88;;
49870;SDS011;35767;52.322;9.122;2023-07-31T02:22:06;2.33;;;1.38;;
49870;SDS011;35767;52.322;9.122;2023-07-31T02:25:08;1.98;;;0.90;;
49870;SDS011;35767;52.322;9.122;2023-07-31T02:28:11;1.15;;;1.05;;
49870;SDS011;35767;52.322;9.122;2023-07-31T02:31:12;0.90;;;0.90;;
49870;SDS011;35767;52.322;9.122;2023-07-31T02:34:14;1.30;;;1.20;;
49870;SDS011;35767;52.322;9.122;2023-07-31T02:37:16;1.00;;;1.00;;
49870;SDS011;35767;52.322;9.122;2023-07-31T02:40:18;1.55;;;1.20;;
49870;SDS011;35767;52.322;9.122;2023-07-31T02:43:21;1.33;;;1.20;;
49870;SDS011;35767;52.322;9.122;2023-07-31T02:46:23;1.42;;;1.33;;
49870;SDS011;35767;52.322;9.122;2023-07-31T02:49:24;1.10;;;1.10;;
49870;SDS011;35767;52.322;9.122;2023-07-31T02:52:26;1.00;;;1.00;;
49870;SDS011;35767;52.322;9.122;2023-07-31T02:55:28;1.30;;;1.25;;
49870;SDS011;35767;52.322;9.122;2023-07-31T02:58:31;1.50;;;1.40;;
49870;SDS011;35767;52.322;9.122;2023-07-31T03:01:32;1.88;;;1.40;;
49870;SDS011;35767;52.322;9.122;2023-07-31T03:04:34;4.03;;;1.70;;
49870;SDS011;35767;52.322;9.122;2023-07-31T03:07:36;1.55;;;1.45;;
49870;SDS011;35767;52.322;9.122;2023-07-31T03:10:38;1.77;;;1.67;;
49870;SDS011;35767;52.322;9.122;2023-07-31T03:13:42;2.05;;;1.63;;
49870;SDS011;35767;52.322;9.122;2023-07-31T03:16:44;2.05;;;1.58;;
49870;SDS011;35767;52.322;9.122;2023-07-31T03:19:46;2.47;;;1.58;;
49870;SDS011;35767;52.322;9.122;2023-07-31T03:22:47;1.55;;;1.45;;
49870;SDS011;35767;52.322;9.122;2023-07-31T03:25:56;1.60;;;1.50;;
49870;SDS011;35767;52.322;9.122;2023-07-31T03:29:03;1.63;;;1.52;;
49870;SDS011;35767;52.322;9.122;2023-07-31T03:32:05;1.83;;;1.50;;
49870;SDS011;35767;52.322;9.122;2023-07-31T03:35:07;1.45;;;1.35;;
49870;SDS011;35767;52.322;9.122;2023-07-31T03:38:17;1.33;;;1.23;;
49870;SDS011;35767;52.322;9.122;2023-07-31T03:41:18;1.80;;;1.48;;
49870;SDS011;35767;52.322;9.122;2023-07-31T03:44:22;1.27;;;1.17;;
49870;SDS011;35767;52.322;9.122;2023-07-31T03:47:24;1.55;;;1.00;;
49870;SDS011;35767;52.322;9.122;2023-07-31T03:50:26;1.42;;;1.20;;
49870;SDS011;35767;52.322;9.122;2023-07-31T03:53:27;1.45;;;1.35;;
49870;SDS011;35767;52.322;9.122;2023-07-31T03:56:29;2.83;;;1.50;;
49870;SDS011;35767;52.322;9.122;2023-07-31T03:59:34;2.30;;;1.35;;
49870;SDS011;35767;52.322;9.122;2023-07-31T04:02:37;1.25;;;0.82;;
49870;SDS011;35767;52.322;9.122;2023-07-31T04:05:38;2.47;;;1.00;;
49870;SDS011;35767;52.322;9.122;2023-07-31T04:08:40;1.10;;;0.98;;
49870;SDS011;35767;52.322;9.122;2023-07-31T04:11:41;2.00;;;0.90;;
49870;SDS011;35767;52.322;9.122;2023-07-31T04:14:44;1.27;;;0.77;;
49870;SDS011;35767;52.322;9.122;2023-07-31T04:17:46;0.88;;;0.73;;
49870;SDS011;35767;52.322;9.122;2023-07-31T04:20:48;3.45;;;0.75;;
49870;SDS011;35767;52.322;9.122;2023-07-31T04:23:49;0.55;;;0.55;;
49870;SDS011;35767;52.322;9.122;2023-07-31T04:26:51;0.52;;;0.52;;
49870;SDS011;35767;52.322;9.122;2023-07-31T04:29:55;2.17;;;0.60;;
49870;SDS011;35767;52.322;9.122;2023-07-31T04:32:56;0.50;;;0.47;;
49870;SDS011;35767;52.322;9.122;2023-07-31T04:35:59;0.40;;;0.40;;
49870;SDS011;35767;52.322;9.122;2023-07-31T04:39:00;1.63;;;0.85;;
49870;SDS011;35767;52.322;9.122;2023-07-31T04:42:04;0.80;;;0.80;;
49870;SDS011;35767;52.322;9.122;2023-07-31T04:45:08;1.15;;;0.82;;
49870;SDS011;35767;52.322;9.122;2023-07-31T04:48:10;1.40;;;0.85;;
49870;SDS011;35767;52.322;9.122;2023-07-31T04:51:12;1.20;;;0.95;;
49870;SDS011;35767;52.322;9.122;2023-07-31T04:54:14;1.60;;;1.50;;
49870;SDS011;35767;52.322;9.122;2023-07-31T04:57:15;1.63;;;1.50;;
49870;SDS011;35767;52.322;9.122;2023-07-31T05:00:18;2.00;;;1.80;;
49870;SDS011;35767;52.322;9.122;2023-07-31T05:03:21;3.97;;;2.55;;
49870;SDS011;35767;52.322;9.122;2023-07-31T05:06:23;4.43;;;2.65;;
49870;SDS011;35767;52.322;9.122;2023-07-31T05:09:30;3.10;;;2.80;;
49870;SDS011;35767;52.322;9.122;2023-07-31T05:12:32;5.45;;;2.80;;
49870;SDS011;35767;52.322;9.122;2023-07-31T05:15:35;3.88;;;3.55;;
49870;SDS011;35767;52.322;9.122;2023-07-31T05:18:38;5.10;;;3.20;;
49870;SDS011;35767;52.322;9.122;2023-07-31T05:21:40;4.35;;;3.30;;
49870;SDS011;35767;52.322;9.122;2023-07-31T05:24:43;5.72;;;3.85;;
49870;SDS011;35767;52.322;9.122;2023-07-31T05:27:45;6.97;;;3.88;;
49870;SDS011;35767;52.322;9.122;2023-07-31T05:30:49;7.70;;;4.65;;
49870;SDS011;35767;52.322;9.122;2023-07-31T05:33:51;6.55;;;4.50;;
49870;SDS011;35767;52.322;9.122;2023-07-31T05:36:53;4.43;;;4.03;;
49870;SDS011;35767;52.322;9.122;2023-07-31T05:39:57;5.80;;;4.50;;
49870;SDS011;35767;52.322;9.122;2023-07-31T05:42:58;6.82;;;4.50;;
49870;SDS011;35767;52.322;9.122;2023-07-31T05:46:01;5.80;;;4.32;;
49870;SDS011;35767;52.322;9.122;2023-07-31T05:49:07;6.07;;;4.53;;
49870;SDS011;35767;52.322;9.122;2023-07-31T05:52:12;4.97;;;4.28;;
49870;SDS011;35767;52.322;9.122;2023-07-31T05:55:15;6.03;;;4.57;;
49870;SDS011;35767;52.322;9.122;2023-07-31T05:58:17;6.68;;;4.57;;
49870;SDS011;35767;52.322;9.122;2023-07-31T06:01:20;5.97;;;4.82;;
49870;SDS011;35767;52.322;9.122;2023-07-31T06:04:23;6.82;;;5.13;;
49870;SDS011;35767;52.322;9.122;2023-07-31T06:07:25;7.28;;;4.70;;
49870;SDS011;35767;52.322;9.122;2023-07-31T06:10:27;8.75;;;5.28;;
49870;SDS011;35767;52.322;9.122;2023-07-31T06:13:29;12.13;;;4.95;;
49870;SDS011;35767;52.322;9.122;2023-07-31T06:16:32;7.43;;;5.25;;
49870;SDS011;35767;52.322;9.122;2023-07-31T06:19:34;5.93;;;4.60;;
49870;SDS011;35767;52.322;9.122;2023-07-31T06:22:37;7.43;;;5.07;;
49870;SDS011;35767;52.322;9.122;2023-07-31T06:25:42;8.13;;;5.35;;
49870;SDS011;35767;52.322;9.122;2023-07-31T06:28:44;9.82;;;4.97;;
49870;SDS011;35767;52.322;9.122;2023-07-31T06:31:47;10.85;;;5.55;;
49870;SDS011;35767;52.322;9.122;2023-07-31T06:34:50;8.65;;;5.45;;
49870;SDS011;35767;52.322;9.122;2023-07-31T06:37:52;7.20;;;4.68;;
49870;SDS011;35767;52.322;9.122;2023-07-31T06:41:03;8.10;;;5.27;;
49870;SDS011;35767;52.322;9.122;2023-07-31T06:44:05;12.27;;;5.18;;
49870;SDS011;35767;52.322;9.122;2023-07-31T06:47:12;9.52;;;5.30;;
49870;SDS011;35767;52.322;9.122;2023-07-31T06:50:16;10.55;;;4.97;;
49870;SDS011;35767;52.322;9.122;2023-07-31T06:53:18;9.35;;;4.45;;
49870;SDS011;35767;52.322;9.122;2023-07-31T06:56:24;9.45;;;4.60;;
49870;SDS011;35767;52.322;9.122;2023-07-31T06:59:25;10.57;;;5.13;;
49870;SDS011;35767;52.322;9.122;2023-07-31T07:02:28;6.45;;;4.40;;
49870;SDS011;35767;52.322;9.122;2023-07-31T07:05:30;5.18;;;4.60;;
49870;SDS011;35767;52.322;9.122;2023-07-31T07:08:32;10.45;;;5.57;;
49870;SDS011;35767;52.322;9.122;2023-07-31T07:11:33;6.57;;;4.40;;
49870;SDS011;35767;52.322;9.122;2023-07-31T07:14:35;7.45;;;4.40;;
49870;SDS011;35767;52.322;9.122;2023-07-31T07:17:38;6.85;;;4.30;;
49870;SDS011;35767;52.322;9.122;2023-07-31T07:20:45;8.43;;;4.80;;
49870;SDS011;35767;52.322;9.122;2023-07-31T07:23:47;8.02;;;5.13;;
49870;SDS011;35767;52.322;9.122;2023-07-31T07:26:49;8.95;;;4.97;;
49870;SDS011;35767;52.322;9.122;2023-07-31T07:29:53;8.85;;;4.75;;
49870;SDS011;35767;52.322;9.122;2023-07-31T07:32:57;10.15;;;4.38;;
49870;SDS011;35767;52.322;9.122;2023-07-31T07:36:02;8.73;;;4.47;;
49870;SDS011;35767;52.322;9.122;2023-07-31T07:39:03;6.80;;;4.80;;
49870;SDS011;35767;52.322;9.122;2023-07-31T07:42:05;9.50;;;4.57;;
49870;SDS011;35767;52.322;9.122;2023-07-31T07:45:10;9.65;;;4.80;;
49870;SDS011;35767;52.322;9.122;2023-07-31T07:48:13;8.52;;;4.30;;
49870;SDS011;35767;52.322;9.122;2023-07-31T07:51:17;7.80;;;4.35;;
49870;SDS011;35767;52.322;9.122;2023-07-31T07:54:18;8.38;;;4.28;;
49870;SDS011;35767;52.322;9.122;2023-07-31T07:57:20;6.30;;;4.25;;
49870;SDS011;35767;52.322;9.122;2023-07-31T08:00:22;10.43;;;4.88;;
49870;SDS011;35767;52.322;9.122;2023-07-31T08:03:25;6.45;;;4.47;;
49870;SDS011;35767;52.322;9.122;2023-07-31T08:06:27;7.70;;;4.85;;
49870;SDS011;35767;52.322;9.122;2023-07-31T08:09:30;7.45;;;4.15;;
49870;SDS011;35767;52.322;9.122;2023-07-31T08:12:35;9.18;;;4.15;;
49870;SDS011;35767;52.322;9.122;2023-07-31T08:15:36;6.68;;;3.90;;
49870;SDS011;35767;52.322;9.122;2023-07-31T08:18:41;6.05;;;3.65;;
49870;SDS011;35767;52.322;9.122;2023-07-31T08:21:43;8.07;;;4.20;;
49870;SDS011;35767;52.322;9.122;2023-07-31T08:24:45;6.70;;;4.25;;
49870;SDS011;35767;52.322;9.122;2023-07-31T08:27:52;7.28;;;4.00;;
49870;SDS011;35767;52.322;9.122;2023-07-31T08:30:53;4.82;;;4.00;;
49870;SDS011;35767;52.322;9.122;2023-07-31T08:33:59;7.50;;;4.68;;
49870;SDS011;35767;52.322;9.122;2023-07-31T08:37:04;7.35;;;4.10;;
49870;SDS011;35767;52.322;9.122;2023-07-31T08:40:06;7.25;;;4.40;;
49870;SDS011;35767;52.322;9.122;2023-07-31T08:43:14;5.47;;;3.90;;
49870;SDS011;35767;52.322;9.122;2023-07-31T08:46:16;4.30;;;3.53;;
49870;SDS011;35767;52.322;9.122;2023-07-31T08:49:19;4.35;;;3.63;;
49870;SDS011;35767;52.322;9.122;2023-07-31T08:52:21;4.25;;;3.47;;
49870;SDS011;35767;52.322;9.122;2023-07-31T08:55:23;4.90;;;4.13;;
49870;SDS011;35767;52.322;9.122;2023-07-31T08:58:30;3.78;;;3.42;;
49870;SDS011;35767;52.322;9.122;2023-07-31T09:01:34;4.00;;;3.60;;
49870;SDS011;35767;52.322;9.122;2023-07-31T09:04:39;5.10;;;3.97;;
49870;SDS011;35767;52.322;9.122;2023-07-31T09:07:40;5.80;;;3.28;;
49870;SDS011;35767;52.322;9.122;2023-07-31T09:10:47;3.63;;;3.20;;
49870;SDS011;35767;52.322;9.122;2023-07-31T09:13:52;4.20;;;2.75;;
49870;SDS011;35767;52.322;9.122;2023-07-31T09:16:55;3.25;;;2.65;;
49870;SDS011;35767;52.322;9.122;2023-07-31T09:19:59;2.58;;;2.33;;
49870;SDS011;35767;52.322;9.122;2023-07-31T09:23:15;2.58;;;2.25;;
49870;SDS011;35767;52.322;9.122;2023-07-31T09:26:28;2.67;;;1.98;;
49870;SDS011;35767;52.322;9.122;2023-07-31T09:29:30;2.75;;;2.40;;
49870;SDS011;35767;52.322;9.122;2023-07-31T09:32:39;2.30;;;2.00;;
49870;SDS011;35767;52.322;9.122;2023-07-31T09:35:45;3.08;;;2.08;;
49870;SDS011;35767;52.322;9.122;2023-07-31T09:38:48;2.33;;;2.13;;
49870;SDS011;35767;52.322;9.122;2023-07-31T09:41:53;2.00;;;1.90;;
49870;SDS011;35767;52.322;9.122;2023-07-31T09:45:01;1.90;;;1.80;;
49870;SDS011;35767;52.322;9.122;2023-07-31T09:48:09;2.53;;;2.33;;
49870;SDS011;35767;52.322;9.122;2023-07-31T09:51:13;3.10;;;2.38;;
49870;SDS011;35767;52.322;9.122;2023-07-31T09:54:20;3.63;;;1.88;;
49870;SDS011;35767;52.322;9.122;2023-07-31T09:57:22;2.10;;;1.90;;
49870;SDS011;35767;52.322;9.122;2023-07-31T10:00:26;2.47;;;1.90;;
49870;SDS011;35767;52.322;9.122;2023-07-31T10:03:31;2.53;;;1.80;;
49870;SDS011;35767;52.322;9.122;2023-07-31T10:06:37;1.75;;;1.65;;
49870;SDS011;35767;52.322;9.122;2023-07-31T10:09:47;3.50;;;1.63;;
49870;SDS011;35767;52.322;9.122;2023-07-31T10:12:50;1.48;;;1.38;;
49870;SDS011;35767;52.322;9.122;2023-07-31T10:15:53;1.70;;;1.60;;
49870;SDS011;35767;52.322;9.122;2023-07-31T10:18:56;2.10;;;1.95;;
49870;SDS011;35767;52.322;9.122;2023-07-31T10:21:59;1.75;;;1.65;;
49870;SDS011;35767;52.322;9.122;2023-07-31T10:25:01;2.03;;;1.88;;
49870;SDS011;35767;52.322;9.122;2023-07-31T10:28:03;2.58;;;2.17;;
49870;SDS011;35767;52.322;9.122;2023-07-31T10:31:05;2.20;;;2.10;;
49870;SDS011;35767;52.322;9.122;2023-07-31T10:34:07;3.40;;;2.17;;
49870;SDS011;35767;52.322;9.122;2023-07-31T10:37:25;2.63;;;2.28;;
49870;SDS011;35767;52.322;9.122;2023-07-31T10:40:28;2.53;;;2.22;;
49870;SDS011;35767;52.322;9.122;2023-07-31T10:43:31;2.40;;;1.90;;
49870;SDS011;35767;52.322;9.122;2023-07-31T10:46:34;3.83;;;1.80;;
49870;SDS011;35767;52.322;9.122;2023-07-31T10:49:38;1.95;;;1.85;;
49870;SDS011;35767;52.322;9.122;2023-07-31T10:52:45;1.88;;;1.75;;
49870;SDS011;35767;52.322;9.122;2023-07-31T10:55:49;3.13;;;1.77;;
49870;SDS011;35767;52.322;9.122;2023-07-31T10:59:00;1.85;;;1.48;;
49870;SDS011;35767;52.322;9.122;2023-07-31T11:02:04;1.70;;;1.60;;
49870;SDS011;35767;52.322;9.122;2023-07-31T11:05:08;2.58;;;1.58;;
49870;SDS011;35767;52.322;9.122;2023-07-31T11:08:12;1.73;;;1.63;;
49870;SDS011;35767;52.322;9.122;2023-07-31T11:11:15;1.67;;;1.42;;
49870;SDS011;35767;52.322;9.122;2023-07-31T11:14:18;1.55;;;1.45;;
49870;SDS011;35767;52.322;9.122;2023-07-31T11:17:24;1.27;;;1.17;;
49870;SDS011;35767;52.322;9.122;2023-07-31T11:20:28;1.73;;;1.10;;
49870;SDS011;35767;52.322;9.122;2023-07-31T11:23:32;1.23;;;1.23;;
49870;SDS011;35767;52.322;9.122;2023-07-31T11:26:34;1.08;;;1.08;;
49870;SDS011;35767;52.322;9.122;2023-07-31T11:29:40;1.00;;;1.00;;
49870;SDS011;35767;52.322;9.122;2023-07-31T11:32:42;1.15;;;1.00;;
49870;SDS011;35767;52.322;9.122;2023-07-31T11:35:45;1.85;;;0.90;;
49870;SDS011;35767;52.322;9.122;2023-07-31T11:38:48;2.10;;;0.80;;
49870;SDS011;35767;52.322;9.122;2023-07-31T11:41:50;1.00;;;0.90;;
49870;SDS011;35767;52.322;9.122;2023-07-31T11:44:52;0.73;;;0.73;;
49870;SDS011;35767;52.322;9.122;2023-07-31T11:47:54;1.50;;;0.98;;
49870;SDS011;35767;52.322;9.122;2023-07-31T11:50:56;0.80;;;0.80;;
49870;SDS011;35767;52.322;9.122;2023-07-31T11:54:00;1.35;;;0.70;;
49870;SDS011;35767;52.322;9.122;2023-07-31T11:57:03;0.50;;;0.50;;
49870;SDS011;35767;52.322;9.122;2023-07-31T12:00:06;0.80;;;0.80;;
49870;SDS011;35767;52.322;9.122;2023-07-31T12:03:13;2.22;;;0.77;;
49870;SDS011;35767;52.322;9.122;2023-07-31T12:06:15;0.90;;;0.70;;
49870;SDS011;35767;52.322;9.122;2023-07-31T12:09:21;1.33;;;1.00;;
49870;SDS011;35767;52.322;9.122;2023-07-31T12:12:22;1.00;;;0.80;;
49870;SDS011;35767;52.322;9.122;2023-07-31T12:15:33;0.57;;;0.57;;
49870;SDS011;35767;52.322;9.122;2023-07-31T12:18:36;0.57;;;0.52;;
49870;SDS011;35767;52.322;9.122;2023-07-31T12:21:40;0.47;;;0.47;;
49870;SDS011;35767;52.322;9.122;2023-07-31T12:24:44;0.80;;;0.80;;
49870;SDS011;35767;52.322;9.122;2023-07-31T12:27:45;1.02;;;1.00;;
49870;SDS011;35767;52.322;9.122;2023-07-31T12:30:47;0.90;;;0.90;;
49870;SDS011;35767;52.322;9.122;2023-07-31T12:33:50;0.90;;;0.90;;
49870;SDS011;35767;52.322;9.122;2023-07-31T12:36:53;1.38;;;0.80;;
49870;SDS011;35767;52.322;9.122;2023-07-31T12:39:59;0.70;;;0.70;;
49870;SDS011;35767;52.322;9.122;2023-07-31T12:43:01;1.15;;;0.70;;
49870;SDS011;35767;52.322;9.122;2023-07-31T12:46:05;0.93;;;0.88;;
49870;SDS011;35767;52.322;9.122;2023-07-31T12:49:10;1.30;;;0.80;;
49870;SDS011;35767;52.322;9.122;2023-07-31T12:52:12;0.75;;;0.75;;
49870;SDS011;35767;52.322;9.122;2023-07-31T12:55:15;1.05;;;0.73;;
49870;SDS011;35767;52.322;9.122;2023-07-31T13:01:27;0.85;;;0.75;;
49870;SDS011;35767;52.322;9.122;2023-07-31T13:04:30;0.82;;;0.82;;
49870;SDS011;35767;52.322;9.122;2023-07-31T13:07:34;0.68;;;0.68;;
49870;SDS011;35767;52.322;9.122;2023-07-31T13:10:38;0.80;;;0.70;;
49870;SDS011;35767;52.322;9.122;2023-07-31T13:13:40;0.60;;;0.60;;
49870;SDS011;35767;52.322;9.122;2023-07-31T13:16:45;0.70;;;0.60;;
49870;SDS011;35767;52.322;9.122;2023-07-31T13:19:48;1.85;;;0.85;;
49870;SDS011;35767;52.322;9.122;2023-07-31T13:22:50;1.02;;;0.95;;
49870;SDS011;35767;52.322;9.122;2023-07-31T13:25:55;0.80;;;0.63;;
49870;SDS011;35767;52.322;9.122;2023-07-31T13:28:57;0.85;;;0.80;;
49870;SDS011;35767;52.322;9.122;2023-07-31T13:31:59;1.15;;;0.88;;
49870;SDS011;35767;52.322;9.122;2023-07-31T13:35:01;1.05;;;1.05;;
49870;SDS011;35767;52.322;9.122;2023-07-31T13:38:06;0.75;;;0.75;;
49870;SDS011;35767;52.322;9.122;2023-07-31T13:41:10;0.80;;;0.80;;
49870;SDS011;35767;52.322;9.122;2023-07-31T13:44:12;0.90;;;0.90;;
49870;SDS011;35767;52.322;9.122;2023-07-31T13:47:15;2.10;;;0.90;;
49870;SDS011;35767;52.322;9.122;2023-07-31T13:50:17;1.00;;;1.00;;
49870;SDS011;35767;52.322;9.122;2023-07-31T13:53:25;1.17;;;1.17;;
49870;SDS011;35767;52.322;9.122;2023-07-31T13:56:28;1.67;;;1.58;;
49870;SDS011;35767;52.322;9.122;2023-07-31T13:59:32;2.05;;;1.95;;
49870;SDS011;35767;52.322;9.122;2023-07-31T14:02:34;2.50;;;2.40;;
49870;SDS011;35767;52.322;9.122;2023-07-31T14:05:35;2.50;;;2.40;;
49870;SDS011;35767;52.322;9.122;2023-07-31T14:08:38;3.08;;;2.88;;
49870;SDS011;35767;52.322;9.122;2023-07-31T14:11:41;2.92;;;2.72;;
49870;SDS011;35767;52.322;9.122;2023-07-31T14:14:43;2.53;;;2.42;;
49870;SDS011;35767;52.322;9.122;2023-07-31T14:17:45;3.03;;;2.83;;
49870;SDS011;35767;52.322;9.122;2023-07-31T14:20:47;3.03;;;2.92;;
49870;SDS011;35767;52.322;9.122;2023-07-31T14:23:50;3.53;;;3.00;;
49870;SDS011;35767;52.322;9.122;2023-07-31T14:26:53;3.15;;;2.95;;
49870;SDS011;35767;52.322;9.122;2023-07-31T14:30:23;4.50;;;2.70;;
49870;SDS011;35767;52.322;9.122;2023-07-31T14:33:28;3.25;;;3.03;;
49870;SDS011;35767;52.322;9.122;2023-07-31T14:36:30;4.25;;;3.20;;
49870;SDS011;35767;52.322;9.122;2023-07-31T14:39:32;2.83;;;2.63;;
49870;SDS011;35767;52.322;9.122;2023-07-31T14:42:44;3.17;;;2.90;;
49870;SDS011;35767;52.322;9.122;2023-07-31T14:45:49;2.83;;;2.58;;
49870;SDS011;35767;52.322;9.122;2023-07-31T14:48:57;2.55;;;2.38;;
49870;SDS011;35767;52.322;9.122;2023-07-31T14:51:59;2.90;;;2.70;;
49870;SDS011;35767;52.322;9.122;2023-07-31T14:55:01;2.97;;;2.78;;
49870;SDS011;35767;52.322;9.122;2023-07-31T14:58:04;2.90;;;2.70;;
49870;SDS011;35767;52.322;9.122;2023-07-31T15:01:08;2.97;;;2.78;;
49870;SDS011;35767;52.322;9.122;2023-07-31T15:04:19;3.33;;;3.00;;
49870;SDS011;35767;52.322;9.122;2023-07-31T15:07:22;2.92;;;2.72;;
49870;SDS011;35767;52.322;9.122;2023-07-31T15:10:33;3.00;;;2.80;;
49870;SDS011;35767;52.322;9.122;2023-07-31T15:13:36;3.35;;;3.08;;
49870;SDS011;35767;52.322;9.122;2023-07-31T15:16:37;3.40;;;3.17;;
49870;SDS011;35767;52.322;9.122;2023-07-31T15:19:42;3.20;;;3.00;;
49870;SDS011;35767;52.322;9.122;2023-07-31T15:22:51;3.50;;;3.22;;
49870;SDS011;35767;52.322;9.122;2023-07-31T15:25:52;3.22;;;2.95;;
49870;SDS011;35767;52.322;9.122;2023-07-31T15:28:57;3.47;;;3.17;;
49870;SDS011;35767;52.322;9.122;2023-07-31T15:32:10;3.40;;;3.08;;
49870;SDS011;35767;52.322;9.122;2023-07-31T15:35:12;3.40;;;3.10;;
49870;SDS011;35767;52.322;9.122;2023-07-31T15:38:14;3.38;;;3.08;;
49870;SDS011;35767;52.322;9.122;2023-07-31T15:41:16;3.17;;;2.97;;
49870;SDS011;35767;52.322;9.122;2023-07-31T15:44:22;3.15;;;2.92;;
49870;SDS011;35767;52.322;9.122;2023-07-31T15:47:25;3.40;;;3.10;;
49870;SDS011;35767;52.322;9.122;2023-07-31T15:50:27;3.10;;;2.90;;
49870;SDS011;35767;52.322;9.122;2023-07-31T15:53:29;3.25;;;3.05;;
49870;SDS011;35767;52.322;9.122;2023-07-31T15:56:30;3.35;;;3.05;;
49870;SDS011;35767;52.322;9.122;2023-07-31T15:59:41;4.15;;;3.40;;
49870;SDS011;35767;52.322;9.122;2023-07-31T16:02:43;3.58;;;3.38;;
49870;SDS011;35767;52.322;9.122;2023-07-31T16:05:52;4.97;;;3.42;;
49870;SDS011;35767;52.322;9.122;2023-07-31T16:08:53;3.30;;;3.10;;
49870;SDS011;35767;52.322;9.122;2023-07-31T16:11:55;3.92;;;3.63;;
49870;SDS011;35767;52.322;9.122;2023-07-31T16:14:58;2.83;;;2.65;;
49870;SDS011;35767;52.322;9.122;2023-07-31T16:18:00;3.10;;;2.90;;
49870;SDS011;35767;52.322;9.122;2023-07-31T16:21:04;2.90;;;2.70;;
49870;SDS011;35767;52.322;9.122;2023-07-31T16:24:13;3.25;;;2.70;;
49870;SDS011;35767;52.322;9.122;2023-07-31T16:27:14;2.58;;;2.38;;
49870;SDS011;35767;52.322;9.122;2023-07-31T16:30:19;3.00;;;2.80;;
49870;SDS011;35767;52.322;9.122;2023-07-31T16:33:22;2.70;;;2.50;;
49870;SDS011;35767;52.322;9.122;2023-07-31T16:36:24;2.47;;;2.38;;
49870;SDS011;35767;52.322;9.122;2023-07-31T16:39:26;2.47;;;2.28;;
49870;SDS011;35767;52.322;9.122;2023-07-31T16:42:28;2.50;;;2.30;;
49870;SDS011;35767;52.322;9.122;2023-07-31T16:45:31;2.75;;;2.45;;
49870;SDS011;35767;52.322;9.122;2023-07-31T16:48:33;3.25;;;2.50;;
49870;SDS011;35767;52.322;9.122;2023-07-31T16:51:34;3.28;;;2.95;;
49870;SDS011;35767;52.322;9.122;2023-07-31T16:54:38;2.88;;;2.67;;
49870;SDS011;35767;52.322;9.122;2023-07-31T16:57:40;2.22;;;2.13;;
49870;SDS011;35767;52.322;9.122;2023-07-31T17:00:43;2.72;;;2.60;;
49870;SDS011;35767;52.322;9.122;2023-07-31T17:03:45;2.42;;;2.22;;
49870;SDS011;35767;52.322;9.122;2023-07-31T17:06:47;3.13;;;2.92;;
49870;SDS011;35767;52.322;9.122;2023-07-31T17:09:49;3.38;;;2.63;;
49870;SDS011;35767;52.322;9.122;2023-07-31T17:12:51;2.90;;;2.70;;
49870;SDS011;35767;52.322;9.122;2023-07-31T17:15:54;4.20;;;3.42;;
49870;SDS011;35767;52.322;9.122;2023-07-31T17:18:56;3.92;;;2.67;;
49870;SDS011;35767;52.322;9.122;2023-07-31T17:21:57;3.05;;;2.85;;
49870;SDS011;35767;52.322;9.122;2023-07-31T17:24:59;2.80;;;2.60;;
49870;SDS011;35767;52.322;9.122;2023-07-31T17:28:03;2.90;;;2.70;;
49870;SDS011;35767;52.322;9.122;2023-07-31T17:31:06;3.00;;;2.80;;
49870;SDS011;35767;52.322;9.122;2023-07-31T17:34:09;2.42;;;2.22;;
49870;SDS011;35767;52.322;9.122;2023-07-31T17:37:13;3.88;;;2.42;;
49870;SDS011;35767;52.322;9.122;2023-07-31T17:40:14;2.55;;;2.40;;
49870;SDS011;35767;52.322;9.122;2023-07-31T17:43:16;2.50;;;2.30;;
49870;SDS011;35767;52.322;9.122;2023-07-31T17:46:20;2.63;;;2.03;;
49870;SDS011;35767;52.322;9.122;2023-07-31T17:49:22;2.67;;;2.40;;
49870;SDS011;35767;52.322;9.122;2023-07-31T17:52:25;3.55;;;2.58;;
49870;SDS011;35767;52.322;9.122;2023-07-31T17:55:26;3.85;;;2.80;;
49870;SDS011;35767;52.322;9.122;2023-07-31T17:58:28;3.65;;;2.42;;
49870;SDS011;35767;52.322;9.122;2023-07-31T18:01:31;2.92;;;2.60;;
49870;SDS011;35767;52.322;9.122;2023-07-31T18:04:35;2.22;;;2.13;;
49870;SDS011;35767;52.322;9.122;2023-07-31T18:07:37;2.60;;;2.35;;
49870;SDS011;35767;52.322;9.122;2023-07-31T18:10:42;3.13;;;2.40;;
49870;SDS011;35767;52.322;9.122;2023-07-31T18:13:45;2.58;;;2.40;;
49870;SDS011;35767;52.322;9.122;2023-07-31T18:16:48;2.22;;;2.03;;
49870;SDS011;35767;52.322;9.122;2023-07-31T18:19:50;2.60;;;2.40;;
49870;SDS011;35767;52.322;9.122;2023-07-31T18:22:54;2.15;;;2.05;;
49870;SDS011;35767;52.322;9.122;2023-07-31T18:25:55;3.85;;;2.40;;
49870;SDS011;35767;52.322;9.122;2023-07-31T18:28:57;2.55;;;2.35;;
49870;SDS011;35767;52.322;9.122;2023-07-31T18:32:00;2.75;;;2.25;;